Time;durP1;ratioP1;P1;durP2;ratioP2;P2;SDS_P1;SDS_P2;PMS_P1;PMS_P2;Temp;Humidity;BMP_temperature;BMP_pressure;BME280_temperature;BME280_humidity;BME280_pressure;Samples;Min_cycle;Max_cycle;Signal;HPM_P1;HPM_P2
2022/05/13 00:02:06;;;;;;;6.50;5.15;;;22.30;83.80;;;;;;5064383;28;20089;-94
2022/05/13 00:04:31;;;;;;;6.38;5.20;;;22.40;83.80;;;;;;5041671;28;20477;-95
2022/05/13 00:06:57;;;;;;;6.13;5.50;;;22.30;83.90;;;;;;5024925;28;20169;-94
2022/05/13 00:09:56;;;;;;;7.43;5.55;;;22.40;83.70;;;;;;5041098;28;20025;-94
2022/05/13 00:12:09;;;;;;;8.70;5.85;;;22.40;83.70;;;;;;5060532;28;20028;-92
2022/05/13 00:14:35;;;;;;;9.30;6.38;;;22.30;83.40;;;;;;5055911;28;20366;-91
2022/05/13 00:17:01;;;;;;;10.35;6.00;;;22.30;84.00;;;;;;5056842;28;20021;-89
2022/05/13 00:19:27;;;;;;;12.00;6.35;;;22.20;85.40;;;;;;5059717;28;20050;-91
2022/05/13 00:21:52;;;;;;;7.80;6.20;;;22.20;85.40;;;;;;5053676;28;20024;-91
2022/05/13 00:24:18;;;;;;;9.30;6.38;;;22.20;86.90;;;;;;5056895;28;20539;-91
2022/05/13 00:26:44;;;;;;;11.25;6.32;;;22.10;87.40;;;;;;5073749;28;20025;-91
2022/05/13 00:29:09;;;;;;;10.60;6.18;;;22.10;87.00;;;;;;5074651;28;20450;-91
2022/05/13 00:31:35;;;;;;;7.57;6.22;;;22.10;87.90;;;;;;5074746;28;20057;-90
2022/05/13 00:34:01;;;;;;;10.52;7.25;;;21.90;89.10;;;;;;5056294;28;20028;-90
2022/05/13 00:36:27;;;;;;;8.23;6.25;;;21.80;90.50;;;;;;5062921;28;20066;-90
2022/05/13 00:38:52;;;;;;;7.50;5.50;;;21.70;91.00;;;;;;5064538;28;20366;-90
2022/05/13 00:41:18;;;;;;;10.77;5.60;;;21.60;90.70;;;;;;5061868;28;20114;-90
2022/05/13 00:43:51;;;;;;;6.07;5.15;;;21.50;86.30;;;;;;5064444;28;20126;-90
2022/05/13 00:46:16;;;;;;;6.95;4.50;;;21.50;83.50;;;;;;5065280;28;20058;-90
2022/05/13 00:48:44;;;;;;;7.25;3.40;;;21.50;78.20;;;;;;5066116;28;20025;-91
2022/05/13 00:51:14;;;;;;;8.30;3.45;;;21.50;69.90;;;;;;5065330;28;20114;-92
2022/05/13 00:53:39;;;;;;;5.20;3.00;;;21.60;69.50;;;;;;5063077;28;20051;-91
2022/05/13 00:56:06;;;;;;;8.57;2.80;;;21.60;68.90;;;;;;5088044;28;20046;-88
2022/05/13 00:58:35;;;;;;;10.63;3.30;;;21.70;69.00;;;;;;5076210;28;20064;-87
2022/05/13 01:01:00;;;;;;;3.95;2.70;;;21.70;68.40;;;;;;5093121;28;20044;-88
2022/05/13 01:03:26;;;;;;;11.73;3.13;;;21.70;68.50;;;;;;5095434;28;20084;-89
2022/05/13 01:05:57;;;;;;;6.22;2.97;;;21.60;70.20;;;;;;5078928;28;20024;-89
2022/05/13 01:08:24;;;;;;;5.63;2.97;;;21.50;72.00;;;;;;5077172;28;20531;-89
2022/05/13 01:10:50;;;;;;;12.43;3.80;;;21.50;73.60;;;;;;5074421;28;20373;-88
2022/05/13 01:13:22;;;;;;;11.35;3.72;;;21.30;76.10;;;;;;5072469;28;20035;-89
2022/05/13 01:15:51;;;;;;;7.50;3.22;;;21.10;79.40;;;;;;5073720;28;20025;-87
2022/05/13 01:18:33;;;;;;;4.93;3.20;;;21.00;81.60;;;;;;5073470;28;20042;-90
2022/05/13 01:23:45;;;;;;;9.20;3.45;;;20.40;88.90;;;;;;5073345;28;20047;-89
2022/05/13 01:26:19;;;;;;;9.88;4.10;;;20.30;90.80;;;;;;5072776;28;20039;-91
2022/05/13 01:28:51;;;;;;;12.30;4.47;;;20.10;92.00;;;;;;5055728;28;20493;-91
2022/05/13 01:31:32;;;;;;;10.00;4.30;;;19.80;93.90;;;;;;5072681;28;20066;-90
2022/05/13 01:34:00;;;;;;;11.02;4.10;;;19.50;96.10;;;;;;5072641;28;20025;-89
2022/05/13 01:36:27;;;;;;;10.82;4.65;;;19.30;97.90;;;;;;5073096;28;20025;-93
2022/05/13 01:38:53;;;;;;;11.13;4.72;;;19.00;99.90;;;;;;5071351;28;20025;-72
2022/05/13 01:41:19;;;;;;;10.20;4.65;;;18.80;99.90;;;;;;5071466;28;20024;-74
2022/05/13 01:43:47;;;;;;;11.55;4.80;;;18.70;99.90;;;;;;5077993;28;20024;-93
2022/05/13 01:46:13;;;;;;;11.20;4.03;;;18.70;99.90;;;;;;5073448;28;20117;-92
2022/05/13 01:48:40;;;;;;;6.45;4.03;;;18.60;99.90;;;;;;5066840;28;20040;-92
2022/05/13 01:51:06;;;;;;;6.88;4.43;;;18.50;99.90;;;;;;5069256;28;20033;-93
2022/05/13 01:53:51;;;;;;;9.18;4.60;;;18.50;99.90;;;;;;5073170;28;20033;-94
2022/05/13 01:56:17;;;;;;;6.38;4.50;;;18.40;99.90;;;;;;5065327;28;20072;-92
2022/05/13 01:58:42;;;;;;;8.70;4.85;;;18.30;99.90;;;;;;5067000;28;20036;-91
2022/05/13 02:01:09;;;;;;;8.80;5.10;;;18.20;99.90;;;;;;5044680;28;20044;-92
2022/05/13 02:03:44;;;;;;;15.93;5.10;;;18.20;99.90;;;;;;5066867;28;20060;-92
2022/05/13 02:06:12;;;;;;;8.90;4.45;;;18.10;99.90;;;;;;5069024;28;20020;-90
2022/05/13 02:08:37;;;;;;;10.90;4.88;;;18.00;99.90;;;;;;5054650;28;20053;-93
2022/05/13 02:11:04;;;;;;;6.70;4.40;;;18.00;99.90;;;;;;5068708;28;20032;-92
2022/05/13 02:13:30;;;;;;;9.35;4.97;;;18.00;99.90;;;;;;5050863;28;20032;-92
2022/05/13 02:15:55;;;;;;;8.55;4.43;;;18.00;99.90;;;;;;5069371;28;20020;-91
2022/05/13 02:18:21;;;;;;;9.13;4.75;;;18.10;99.90;;;;;;5069548;28;20039;-93
2022/05/13 02:20:47;;;;;;;9.32;4.00;;;18.10;99.90;;;;;;5066747;28;20024;-92
2022/05/13 02:23:13;;;;;;;7.78;4.72;;;18.10;99.90;;;;;;5068516;28;20029;-92
2022/05/13 02:25:39;;;;;;;10.05;3.63;;;18.10;99.90;;;;;;5067475;28;20046;-93
2022/05/13 02:28:24;;;;;;;7.53;3.40;;;18.20;99.90;;;;;;5056298;28;20060;-92
2022/05/13 02:30:49;;;;;;;5.30;3.70;;;18.20;99.90;;;;;;5058581;28;20208;-92
2022/05/13 02:33:15;;;;;;;4.93;3.08;;;18.20;99.90;;;;;;5058524;28;20382;-92
2022/05/13 02:35:41;;;;;;;6.82;3.42;;;18.30;99.90;;;;;;5059053;28;20032;-93
2022/05/13 02:38:07;;;;;;;6.13;3.17;;;18.40;99.90;;;;;;5058759;28;20378;-92
2022/05/13 02:43:17;;;;;;;8.38;3.50;;;18.70;99.90;;;;;;5058710;28;20040;-93
2022/05/13 02:45:42;;;;;;;5.00;3.70;;;18.80;99.90;;;;;;5040176;28;20025;-92
2022/05/13 02:48:08;;;;;;;6.10;2.95;;;18.90;99.90;;;;;;5057587;28;20021;-94
2022/05/13 02:50:37;;;;;;;5.68;3.50;;;19.00;99.90;;;;;;5058213;28;20021;-92
2022/05/13 02:53:02;;;;;;;5.05;3.00;;;19.00;99.90;;;;;;5057700;28;20094;-92
2022/05/13 02:55:28;;;;;;;8.43;3.30;;;19.10;99.90;;;;;;5058345;28;20521;-91
2022/05/13 02:57:54;;;;;;;5.47;3.17;;;19.10;99.90;;;;;;5040582;28;20021;-92
2022/05/13 03:00:20;;;;;;;6.30;3.28;;;19.20;99.90;;;;;;5058127;28;20031;-91
2022/05/13 03:02:46;;;;;;;6.10;3.50;;;19.20;99.90;;;;;;5059803;28;20554;-92
2022/05/13 03:05:12;;;;;;;6.18;3.30;;;19.20;99.90;;;;;;5077232;28;20037;-91
2022/05/13 03:07:38;;;;;;;5.88;3.20;;;19.20;99.90;;;;;;5078772;28;20032;-91
2022/05/13 03:10:05;;;;;;;6.00;3.35;;;19.20;99.90;;;;;;5059706;28;20388;-90
2022/05/13 03:12:31;;;;;;;5.35;3.10;;;19.20;99.90;;;;;;5077457;28;20487;-92
2022/05/13 03:14:57;;;;;;;5.57;2.85;;;19.10;99.90;;;;;;5078702;28;20029;-93
2022/05/13 03:17:23;;;;;;;5.15;2.90;;;19.10;99.90;;;;;;5077090;28;20036;-93
2022/05/13 03:19:48;;;;;;;8.95;3.05;;;19.20;99.90;;;;;;5077007;28;20035;-92
2022/05/13 03:22:14;;;;;;;5.88;2.72;;;19.20;99.90;;;;;;5077840;28;20056;-93
2022/05/13 03:24:40;;;;;;;4.93;2.72;;;19.20;99.90;;;;;;5079194;28;20135;-93
2022/05/13 03:27:07;;;;;;;10.25;3.20;;;19.30;99.90;;;;;;5076695;28;20048;-93
2022/05/13 03:29:33;;;;;;;4.70;3.17;;;19.30;99.90;;;;;;5077854;28;20108;-91
2022/05/13 03:31:59;;;;;;;5.50;3.20;;;19.30;99.90;;;;;;5077625;28;20020;-91
2022/05/13 03:34:26;;;;;;;5.57;3.15;;;19.30;99.90;;;;;;5059040;28;20429;-92
2022/05/13 03:36:52;;;;;;;6.50;3.25;;;19.30;99.90;;;;;;5077144;28;20025;-92
2022/05/13 03:39:18;;;;;;;4.43;3.45;;;19.30;99.90;;;;;;5075946;28;20387;-91
2022/05/13 03:41:43;;;;;;;10.10;3.10;;;19.30;99.90;;;;;;5078375;28;20407;-92
2022/05/13 03:44:10;;;;;;;6.05;2.85;;;19.30;99.90;;;;;;5074737;28;20083;-92
2022/05/13 03:46:35;;;;;;;8.10;3.58;;;19.40;99.90;;;;;;5058930;28;20028;-91
2022/05/13 03:49:02;;;;;;;5.47;3.80;;;19.40;99.90;;;;;;5076495;28;20334;-93
2022/05/13 03:51:28;;;;;;;4.93;3.35;;;19.30;99.90;;;;;;5060934;28;20029;-90
2022/05/13 03:53:54;;;;;;;7.82;3.33;;;19.30;99.90;;;;;;5096671;28;20032;-91
2022/05/13 03:56:20;;;;;;;5.78;3.35;;;19.40;99.90;;;;;;5097423;28;20032;-92
2022/05/13 03:58:46;;;;;;;4.35;3.20;;;19.30;99.90;;;;;;5097574;28;20016;-91
2022/05/13 04:01:12;;;;;;;6.40;2.88;;;19.30;99.90;;;;;;5097407;28;20048;-91
2022/05/13 04:03:38;;;;;;;9.10;3.97;;;19.20;99.90;;;;;;5098383;28;20062;-92
2022/05/13 04:08:56;;;;;;;4.47;3.10;;;19.10;99.90;;;;;;5097695;28;20187;-91
2022/05/13 04:11:31;;;;;;;5.32;3.17;;;19.10;99.90;;;;;;5083808;28;20104;-91
2022/05/13 04:16:42;;;;;;;7.00;3.15;;;19.00;99.90;;;;;;5079607;28;20075;-92
2022/05/13 04:19:08;;;;;;;6.88;3.88;;;18.90;99.90;;;;;;5041686;28;20028;-90
2022/05/13 04:21:36;;;;;;;3.88;3.03;;;19.00;99.90;;;;;;5076992;28;20035;-91
2022/05/13 04:24:06;;;;;;;6.13;3.40;;;18.90;99.90;;;;;;5056808;28;20024;-89
2022/05/13 04:26:32;;;;;;;6.80;3.75;;;18.90;99.90;;;;;;5076651;28;20033;-91
2022/05/13 04:28:58;;;;;;;5.97;3.15;;;18.90;99.90;;;;;;5077618;28;20049;-92
2022/05/13 04:31:28;;;;;;;5.55;2.97;;;18.90;99.90;;;;;;5076082;28;20028;-92
2022/05/13 04:33:54;;;;;;;5.78;2.60;;;18.80;99.90;;;;;;5076292;28;20146;-91
2022/05/13 04:36:21;;;;;;;4.47;2.58;;;18.80;99.90;;;;;;5057897;28;20119;-90
2022/05/13 04:38:47;;;;;;;8.35;2.78;;;18.80;99.90;;;;;;5075831;28;20123;-90
2022/05/13 04:43:59;;;;;;;7.15;2.88;;;18.80;99.90;;;;;;5076065;28;20040;-90
2022/05/13 04:46:25;;;;;;;5.38;2.80;;;18.80;99.90;;;;;;5084577;28;20016;-89
2022/05/13 04:48:52;;;;;;;4.97;2.70;;;18.70;99.90;;;;;;5096133;28;20186;-91
2022/05/13 04:51:18;;;;;;;5.45;2.70;;;18.80;99.90;;;;;;5091811;28;20025;-90
2022/05/13 04:53:45;;;;;;;3.80;2.90;;;18.80;99.90;;;;;;5088771;28;20029;-90
2022/05/13 04:56:11;;;;;;;8.32;2.60;;;18.80;99.90;;;;;;5078963;28;20029;-91
2022/05/13 04:58:38;;;;;;;3.65;2.53;;;18.80;99.90;;;;;;5071035;28;20119;-89
2022/05/13 05:01:06;;;;;;;4.57;2.47;;;18.80;99.90;;;;;;5047184;28;20486;-89
2022/05/13 05:03:35;;;;;;;3.70;2.63;;;18.80;99.90;;;;;;5071722;28;20032;-91
2022/05/13 05:06:02;;;;;;;3.08;2.78;;;18.90;99.90;;;;;;5060167;28;20393;-90
2022/05/13 05:08:28;;;;;;;3.50;2.90;;;18.90;99.90;;;;;;5073829;28;20074;-91
2022/05/13 05:10:54;;;;;;;3.70;3.03;;;18.90;99.90;;;;;;5059079;28;20025;-90
2022/05/13 05:13:23;;;;;;;3.60;2.90;;;18.90;99.90;;;;;;5057679;28;20048;-91
2022/05/13 05:15:49;;;;;;;5.07;2.78;;;18.80;99.90;;;;;;5065338;28;20484;-90
2022/05/13 05:18:15;;;;;;;4.78;2.83;;;18.90;99.90;;;;;;5065115;28;20185;-90
2022/05/13 05:20:42;;;;;;;4.68;3.22;;;18.80;99.90;;;;;;5067256;28;20035;-87
2022/05/13 05:23:22;;;;;;;4.75;3.30;;;18.90;99.90;;;;;;5063513;28;20047;-89
2022/05/13 05:25:48;;;;;;;3.88;2.97;;;18.80;99.90;;;;;;5063386;28;20025;-89
2022/05/13 05:28:14;;;;;;;5.90;3.00;;;18.80;99.90;;;;;;5056183;28;20486;-90
2022/05/13 05:30:42;;;;;;;6.75;3.35;;;18.70;99.90;;;;;;5053029;28;20070;-89
2022/05/13 05:33:08;;;;;;;5.95;3.20;;;18.60;99.90;;;;;;5055414;28;20590;-90
2022/05/13 05:35:34;;;;;;;4.90;2.85;;;18.60;99.90;;;;;;5034501;28;20032;-79
2022/05/13 05:38:01;;;;;;;3.90;3.38;;;18.50;99.90;;;;;;5056638;28;20036;-79
2022/05/13 05:40:27;;;;;;;5.05;3.25;;;18.50;99.90;;;;;;5067278;28;20136;-79
2022/05/13 05:42:53;;;;;;;5.15;3.40;;;18.50;99.90;;;;;;5070778;28;20036;-78
2022/05/13 05:45:20;;;;;;;3.45;3.10;;;18.50;99.90;;;;;;5070547;28;20028;-79
2022/05/13 05:47:46;;;;;;;3.42;3.13;;;18.50;99.90;;;;;;5073676;28;20054;-79
2022/05/13 05:50:16;;;;;;;9.07;3.75;;;18.50;99.90;;;;;;5067507;28;20029;-78
2022/05/13 05:52:41;;;;;;;9.07;3.67;;;18.50;99.90;;;;;;5054473;28;20355;-78
2022/05/13 05:58:04;;;;;;;5.28;3.63;;;18.50;99.90;;;;;;5070710;28;20063;-79
2022/05/13 06:00:32;;;;;;;7.95;3.95;;;18.60;99.90;;;;;;5070359;28;20250;-79
2022/05/13 06:02:58;;;;;;;7.88;3.90;;;18.50;99.90;;;;;;5055308;28;20513;-79
2022/05/13 06:05:25;;;;;;;5.68;3.92;;;18.50;99.90;;;;;;5050659;28;20025;-81
2022/05/13 06:07:52;;;;;;;4.90;3.63;;;18.50;99.90;;;;;;5056460;28;20052;-78
2022/05/13 06:10:19;;;;;;;6.82;4.10;;;18.60;99.90;;;;;;5066997;28;20029;-78
2022/05/13 06:12:44;;;;;;;6.53;3.63;;;18.50;99.90;;;;;;5068250;28;20067;-80
2022/05/13 06:15:12;;;;;;;8.43;3.88;;;18.60;99.90;;;;;;5066450;28;20060;-80
2022/05/13 06:17:49;;;;;;;6.45;3.75;;;18.60;99.90;;;;;;5070916;28;20334;-80
2022/05/13 06:20:17;;;;;;;6.65;3.63;;;18.60;99.90;;;;;;5070506;28;20021;-80
2022/05/13 06:22:43;;;;;;;4.32;3.85;;;18.70;99.90;;;;;;5070793;28;20032;-80
2022/05/13 06:25:12;;;;;;;6.40;3.75;;;18.70;99.90;;;;;;5070541;28;20013;-81
2022/05/13 06:27:38;;;;;;;6.57;3.90;;;18.70;99.90;;;;;;5070859;28;20118;-80
2022/05/13 06:30:10;;;;;;;7.20;4.60;;;18.70;99.90;;;;;;5070980;28;20025;-80
2022/05/13 06:32:36;;;;;;;4.70;4.15;;;18.70;99.90;;;;;;5053154;28;20433;-79
2022/05/13 06:35:03;;;;;;;7.18;4.68;;;18.90;99.90;;;;;;5071024;28;20108;-80
2022/05/13 06:37:29;;;;;;;5.47;3.80;;;18.90;99.90;;;;;;5070465;28;20154;-79
2022/05/13 06:39:55;;;;;;;8.27;4.20;;;19.00;99.90;;;;;;5071135;28;20107;-79
2022/05/13 06:42:20;;;;;;;4.82;4.03;;;19.00;99.90;;;;;;5070263;28;20048;-79
2022/05/13 06:44:46;;;;;;;4.57;4.13;;;19.10;99.90;;;;;;5070906;28;20041;-78
2022/05/13 06:47:11;;;;;;;8.82;4.60;;;19.10;99.90;;;;;;5070404;28;20035;-80
2022/05/13 06:49:37;;;;;;;6.13;3.97;;;19.10;99.90;;;;;;5070953;28;20454;-80
2022/05/13 06:52:03;;;;;;;4.93;3.92;;;19.10;99.90;;;;;;5070479;28;20035;-79
2022/05/13 06:54:31;;;;;;;7.75;4.05;;;19.10;99.90;;;;;;5072902;28;20043;-80
2022/05/13 06:56:57;;;;;;;5.60;3.63;;;19.10;99.90;;;;;;5072642;28;20024;-80
2022/05/13 06:59:23;;;;;;;8.30;3.95;;;19.10;99.90;;;;;;5073910;28;20074;-78
2022/05/13 07:01:49;;;;;;;9.38;4.05;;;19.20;99.90;;;;;;5074274;28;20060;-79
2022/05/13 07:04:15;;;;;;;7.38;3.92;;;19.20;99.90;;;;;;5073691;28;20037;-79
2022/05/13 07:06:41;;;;;;;7.47;4.18;;;19.20;99.90;;;;;;5074265;28;20060;-79
2022/05/13 07:09:07;;;;;;;6.43;4.05;;;19.20;99.90;;;;;;5074301;28;20465;-79
2022/05/13 07:11:33;;;;;;;11.48;4.45;;;19.10;99.90;;;;;;5073918;28;20056;-79
2022/05/13 07:13:59;;;;;;;5.22;3.38;;;19.20;99.90;;;;;;5056280;28;20484;-78
2022/05/13 07:16:26;;;;;;;7.30;3.88;;;19.10;99.90;;;;;;5073132;28;20036;-79
2022/05/13 07:18:52;;;;;;;7.10;4.47;;;19.10;99.90;;;;;;5074114;28;20108;-79
2022/05/13 07:21:18;;;;;;;5.65;3.72;;;19.10;99.90;;;;;;5073229;28;20115;-79
2022/05/13 07:23:44;;;;;;;6.05;4.00;;;19.00;99.90;;;;;;5073691;28;20443;-79
2022/05/13 07:26:10;;;;;;;5.85;4.13;;;19.00;99.90;;;;;;5073803;28;20059;-78
2022/05/13 07:28:38;;;;;;;6.18;3.80;;;19.00;99.90;;;;;;5073402;28;20067;-78
2022/05/13 07:31:05;;;;;;;7.15;4.22;;;19.00;99.90;;;;;;5055695;28;20381;-78
2022/05/13 07:33:31;;;;;;;5.07;4.13;;;19.00;99.90;;;;;;5072020;28;20029;-79
2022/05/13 07:35:57;;;;;;;9.38;4.07;;;18.90;99.90;;;;;;5055924;28;20024;-79
2022/05/13 07:38:23;;;;;;;4.35;3.63;;;18.90;99.90;;;;;;5072853;28;20031;-79
2022/05/13 07:43:34;;;;;;;6.10;3.78;;;18.80;99.90;;;;;;5072629;28;20044;-78
2022/05/13 07:46:02;;;;;;;5.68;3.65;;;18.80;99.90;;;;;;5073575;28;20380;-79
2022/05/13 07:48:27;;;;;;;6.95;4.35;;;18.80;99.90;;;;;;5075622;28;20070;-79
2022/05/13 07:50:53;;;;;;;5.00;4.30;;;18.80;99.90;;;;;;5073289;28;20107;-80
2022/05/13 07:53:19;;;;;;;4.53;4.10;;;18.80;99.90;;;;;;5072613;28;20032;-79
2022/05/13 07:55:45;;;;;;;5.38;4.07;;;18.80;99.90;;;;;;5073550;28;20028;-79
2022/05/13 07:58:10;;;;;;;6.57;4.35;;;18.80;99.90;;;;;;5073531;28;20032;-80
2022/05/13 08:00:38;;;;;;;5.63;4.07;;;18.70;99.90;;;;;;5072919;28;20060;-80
2022/05/13 08:03:09;;;;;;;9.57;4.82;;;18.70;99.90;;;;;;5073388;28;20132;-79
2022/05/13 08:05:40;;;;;;;6.55;4.55;;;18.70;99.90;;;;;;5071625;28;20035;-79
2022/05/13 08:08:08;;;;;;;7.80;4.82;;;18.80;99.90;;;;;;5073389;28;20058;-79
2022/05/13 08:10:35;;;;;;;5.18;4.38;;;18.70;99.90;;;;;;5072628;28;20066;-79
2022/05/13 08:13:01;;;;;;;7.10;4.00;;;18.80;99.90;;;;;;5073136;28;20071;-79
2022/05/13 08:15:27;;;;;;;6.00;3.80;;;18.80;99.90;;;;;;5072352;28;20025;-79
2022/05/13 08:17:53;;;;;;;5.25;4.20;;;18.80;99.90;;;;;;5038624;28;20454;-79
2022/05/13 08:20:19;;;;;;;5.25;4.53;;;18.80;99.90;;;;;;5072726;28;20063;-79
2022/05/13 08:22:45;;;;;;;6.78;4.10;;;18.80;99.90;;;;;;5070057;28;20115;-78
2022/05/13 08:25:11;;;;;;;7.75;4.38;;;18.80;99.90;;;;;;5073215;28;20116;-78
2022/05/13 08:27:37;;;;;;;6.45;4.70;;;18.90;99.90;;;;;;5072501;28;20120;-80
2022/05/13 08:30:04;;;;;;;4.72;4.03;;;18.90;99.90;;;;;;5073272;28;20115;-78
2022/05/13 08:32:30;;;;;;;8.30;4.65;;;19.00;99.90;;;;;;5054468;28;20389;-80
2022/05/13 08:34:57;;;;;;;6.32;4.00;;;19.00;99.90;;;;;;5072845;28;20028;-79
2022/05/13 08:37:22;;;;;;;9.77;4.55;;;19.00;99.90;;;;;;5072545;28;20020;-80
2022/05/13 08:39:48;;;;;;;4.50;4.00;;;19.10;99.90;;;;;;5071800;28;20457;-79
2022/05/13 08:42:41;;;;;;;6.13;4.53;;;19.10;99.90;;;;;;5072567;28;20033;-79
2022/05/13 08:45:10;;;;;;;5.57;4.25;;;19.10;99.90;;;;;;5072557;28;20112;-79
2022/05/13 08:47:52;;;;;;;6.68;4.38;;;19.10;99.90;;;;;;5071880;28;20028;-78
2022/05/13 08:50:44;;;;;;;8.75;5.10;;;19.20;99.90;;;;;;5072756;28;20024;-78
2022/05/13 08:53:30;;;;;;;5.10;4.43;;;19.30;99.90;;;;;;5041239;28;20067;-78
2022/05/13 08:56:04;;;;;;;5.78;4.20;;;19.40;99.90;;;;;;5072517;28;20052;-79
2022/05/13 08:58:37;;;;;;;6.32;4.13;;;19.60;99.90;;;;;;5072104;28;20035;-78
2022/05/13 09:01:09;;;;;;;7.95;4.28;;;19.90;99.90;;;;;;5072371;28;20389;-79
2022/05/13 09:03:41;;;;;;;5.85;3.10;;;20.10;99.90;;;;;;5071791;28;20070;-79
2022/05/13 09:06:11;;;;;;;7.80;3.33;;;20.20;99.90;;;;;;5072624;28;20119;-78
2022/05/13 09:08:37;;;;;;;5.70;3.03;;;20.40;99.90;;;;;;5072085;28;20063;-78
2022/05/13 09:11:27;;;;;;;3.97;2.72;;;20.60;99.90;;;;;;5072199;28;20028;-79
2022/05/13 09:14:14;;;;;;;5.10;2.63;;;20.80;99.90;;;;;;5072273;28;20032;-80
2022/05/13 09:16:49;;;;;;;3.25;2.55;;;20.90;99.90;;;;;;5053702;28;20428;-80
2022/05/13 09:19:28;;;;;;;5.20;2.58;;;20.90;98.90;;;;;;5072482;28;20039;-79
2022/05/13 09:21:54;;;;;;;2.83;2.45;;;21.00;98.50;;;;;;5053905;28;20060;-79
2022/05/13 09:24:20;;;;;;;3.83;2.85;;;21.00;98.50;;;;;;5072102;28;20097;-79
2022/05/13 09:26:46;;;;;;;4.38;2.83;;;21.20;98.80;;;;;;5071416;28;20036;-79
2022/05/13 09:29:17;;;;;;;2.90;2.33;;;21.20;98.30;;;;;;5072540;28;20029;-80
2022/05/13 09:31:59;;;;;;;4.80;2.78;;;21.30;97.90;;;;;;5071276;28;20035;-79
2022/05/13 09:34:25;;;;;;;10.82;2.92;;;21.30;97.00;;;;;;5053710;28;20386;-78
2022/05/13 09:36:50;;;;;;;3.08;2.72;;;21.40;97.00;;;;;;5072123;28;20028;-78
2022/05/13 09:39:16;;;;;;;3.47;2.90;;;21.40;97.20;;;;;;5080503;28;20071;-79
2022/05/13 09:41:42;;;;;;;3.03;2.42;;;21.50;96.30;;;;;;5091712;28;20516;-79
2022/05/13 09:44:13;;;;;;;3.78;2.60;;;21.60;97.00;;;;;;5091703;28;20082;-78
2022/05/13 09:46:47;;;;;;;3.90;2.40;;;21.60;96.80;;;;;;5091553;28;20031;-78
2022/05/13 09:49:36;;;;;;;3.88;2.40;;;21.70;96.40;;;;;;5092274;28;20039;-78
2022/05/13 09:52:08;;;;;;;3.50;2.70;;;21.80;95.70;;;;;;5091983;28;20357;-79
2022/05/13 09:54:37;;;;;;;4.85;2.90;;;21.90;95.10;;;;;;5091453;28;20421;-79
2022/05/13 09:57:14;;;;;;;5.63;2.90;;;21.90;95.20;;;;;;5091861;28;20046;-79
2022/05/13 09:59:55;;;;;;;3.20;2.90;;;21.90;95.50;;;;;;5091244;28;20056;-79
2022/05/13 10:02:37;;;;;;;4.07;2.70;;;21.90;95.50;;;;;;5090522;28;20051;-79
2022/05/13 10:05:17;;;;;;;5.43;2.88;;;22.10;96.10;;;;;;5091724;28;20032;-79
2022/05/13 10:07:55;;;;;;;6.07;2.88;;;22.10;93.70;;;;;;5091169;28;20073;-79
2022/05/13 10:16:18;;;;;;;6.28;3.38;;;22.40;90.90;;;;;;5091809;28;20035;-80
2022/05/13 10:19:11;;;;;;;5.20;3.10;;;22.40;91.40;;;;;;5091070;28;20020;-79
2022/05/13 10:21:50;;;;;;;5.45;3.42;;;22.30;91.10;;;;;;5090928;28;20028;-78
2022/05/13 10:24:28;;;;;;;11.13;3.60;;;22.30;91.70;;;;;;5071370;28;20029;-79
2022/05/13 10:26:56;;;;;;;6.15;3.15;;;22.40;92.00;;;;;;5051603;28;20025;-79
2022/05/13 10:29:43;;;;;;;8.50;3.55;;;22.50;91.60;;;;;;5053578;28;20531;-80
2022/05/13 10:32:19;;;;;;;6.88;3.60;;;22.50;91.30;;;;;;5055347;28;20029;-79
2022/05/13 10:34:50;;;;;;;4.85;3.30;;;22.50;91.20;;;;;;5054593;28;20074;-79
2022/05/13 10:37:35;;;;;;;6.43;3.22;;;22.50;90.80;;;;;;5055307;28;20036;-80
2022/05/13 10:40:03;;;;;;;7.50;3.65;;;22.50;91.00;;;;;;5055133;28;20108;-79
2022/05/13 10:42:36;;;;;;;3.95;3.55;;;22.50;90.70;;;;;;5054232;28;20029;-82
2022/05/13 10:45:19;;;;;;;4.95;3.17;;;22.50;91.10;;;;;;5037007;28;20036;-79
2022/05/13 10:48:00;;;;;;;4.45;3.72;;;22.50;90.80;;;;;;5054372;28;20075;-79
2022/05/13 10:50:35;;;;;;;4.70;3.70;;;22.60;91.30;;;;;;5055111;28;20115;-79
2022/05/13 10:53:09;;;;;;;4.60;3.80;;;22.60;90.30;;;;;;5054930;28;20107;-79
2022/05/13 10:56:04;;;;;;;4.00;3.58;;;22.60;90.00;;;;;;5054442;28;20025;-79
2022/05/13 10:58:41;;;;;;;7.55;4.03;;;22.60;88.80;;;;;;5036184;28;20056;-80
2022/05/13 11:01:19;;;;;;;4.53;3.35;;;22.70;86.90;;;;;;5036719;28;20079;-80
2022/05/13 11:04:15;;;;;;;5.35;3.70;;;22.60;88.10;;;;;;5053841;28;20041;-80
2022/05/13 11:06:59;;;;;;;5.95;3.50;;;22.70;88.60;;;;;;5047130;28;20124;-79
2022/05/13 11:09:50;;;;;;;5.35;4.25;;;22.60;88.60;;;;;;5054522;28;20036;-79
2022/05/13 11:12:34;;;;;;;6.93;4.00;;;22.70;88.90;;;;;;5054152;28;20386;-79
2022/05/13 11:15:22;;;;;;;5.03;3.88;;;22.70;88.20;;;;;;5054361;28;20047;-79
2022/05/13 11:17:59;;;;;;;9.35;4.30;;;22.80;87.10;;;;;;5053246;28;20171;-79
2022/05/13 11:20:44;;;;;;;6.18;4.13;;;22.80;87.00;;;;;;5054868;28;20032;-80
2022/05/13 11:23:22;;;;;;;6.47;3.65;;;22.90;87.90;;;;;;5054333;28;20033;-79
2022/05/13 11:25:56;;;;;;;5.68;3.65;;;23.00;85.40;;;;;;5053719;28;20488;-79
2022/05/13 11:29:02;;;;;;;8.75;3.95;;;22.90;82.70;;;;;;5035993;28;20036;-79
2022/05/13 11:31:52;;;;;;;7.53;3.90;;;23.00;82.00;;;;;;5054369;28;20500;-80
2022/05/13 11:34:53;;;;;;;3.97;3.30;;;23.00;79.30;;;;;;5053984;28;20036;-79
2022/05/13 11:37:20;;;;;;;;;;;23.00;78.30;;;;;;4973457;28;20126;-80
2022/05/13 11:39:59;;;;;;;4.80;3.08;;;23.00;77.30;;;;;;5037394;28;19905;-80
2022/05/13 11:42:37;;;;;;;7.05;3.28;;;23.10;78.30;;;;;;5035958;28;20093;-80
2022/05/13 11:45:24;;;;;;;7.57;3.45;;;23.20;78.40;;;;;;5053806;28;20516;-80
2022/05/13 11:47:56;;;;;;;3.92;3.30;;;23.20;76.20;;;;;;5065599;28;20039;-79
2022/05/13 11:50:27;;;;;;;3.97;2.80;;;23.20;74.70;;;;;;5073694;28;20024;-79
2022/05/13 11:52:54;;;;;;;3.95;3.05;;;23.30;74.90;;;;;;5073027;28;20439;-79
2022/05/13 11:55:42;;;;;;;4.20;3.10;;;23.40;75.60;;;;;;5073304;28;20116;-78
2022/05/13 11:58:29;;;;;;;3.25;2.95;;;23.40;74.60;;;;;;5073677;28;20111;-79
2022/05/13 12:00:54;;;;;;;6.30;2.97;;;23.40;73.70;;;;;;5072618;28;20370;-79
2022/05/13 12:03:21;;;;;;;4.30;2.58;;;23.40;73.30;;;;;;5073610;28;20062;-79
2022/05/13 12:05:46;;;;;;;3.78;2.90;;;23.50;72.20;;;;;;5072679;28;20029;-80
2022/05/13 12:11:39;;;;;;;4.43;2.72;;;23.50;70.80;;;;;;5073093;28;20059;-80
2022/05/13 12:14:30;;;;;;;5.50;2.50;;;23.50;71.20;;;;;;5073473;28;20037;-80
2022/05/13 12:17:15;;;;;;;3.30;2.40;;;23.60;71.10;;;;;;5072991;28;20481;-79
2022/05/13 12:20:00;;;;;;;4.25;2.60;;;23.70;72.10;;;;;;5073424;28;20021;-79
2022/05/13 12:22:41;;;;;;;4.15;2.50;;;23.70;71.70;;;;;;5074413;28;20051;-79
2022/05/13 12:25:28;;;;;;;4.28;2.58;;;23.70;70.40;;;;;;5073721;28;20037;-80
2022/05/13 12:28:14;;;;;;;7.55;2.58;;;23.70;69.70;;;;;;5054919;28;20040;-80
2022/05/13 12:30:50;;;;;;;4.13;2.25;;;23.70;69.10;;;;;;5069884;28;20425;-81
2022/05/13 12:33:23;;;;;;;8.02;2.45;;;23.80;69.80;;;;;;5073481;28;20028;-79
2022/05/13 12:39:19;;;;;;;4.50;2.00;;;23.80;68.50;;;;;;5072059;28;20069;-79
2022/05/13 12:42:05;;;;;;;2.28;1.98;;;23.80;64.70;;;;;;5072953;28;20032;-80
2022/05/13 12:44:30;;;;;;;5.00;2.58;;;23.80;65.40;;;;;;5073235;28;20177;-80
2022/05/13 12:47:15;;;;;;;3.45;1.98;;;23.70;65.70;;;;;;5054591;28;20278;-80
2022/05/13 12:50:08;;;;;;;4.18;2.33;;;23.70;65.10;;;;;;5072968;28;20066;-80
2022/05/13 12:52:37;;;;;;;4.20;2.20;;;23.70;65.90;;;;;;5054294;28;20028;-80
2022/05/13 12:55:24;;;;;;;2.60;2.40;;;23.70;66.30;;;;;;5073500;28;20028;-79
2022/05/13 12:58:03;;;;;;;5.68;2.78;;;23.60;66.60;;;;;;5072756;28;20055;-78
2022/05/13 13:00:44;;;;;;;4.45;2.60;;;23.60;66.80;;;;;;5072491;28;20029;-79
2022/05/13 13:03:12;;;;;;;;;;;23.60;67.70;;;;;;5055115;28;20055;-79
2022/05/13 13:05:41;;;;;;;4.18;2.90;;;23.50;68.50;;;;;;5072616;28;20337;-79
2022/05/13 13:08:17;;;;;;;5.60;3.13;;;23.50;68.50;;;;;;5072215;28;20036;-80
2022/05/13 13:10:57;;;;;;;5.20;3.33;;;23.60;69.00;;;;;;5071569;28;20043;-81
2022/05/13 13:13:34;;;;;;;3.20;2.88;;;23.60;69.00;;;;;;5072090;28;20032;-80
2022/05/13 13:16:05;;;;;;;4.72;2.85;;;23.60;68.10;;;;;;5071971;28;20035;-80
2022/05/13 13:18:33;;;;;;;5.90;2.80;;;23.60;68.80;;;;;;5054447;28;20051;-80
2022/05/13 13:21:04;;;;;;;4.03;2.78;;;23.50;68.70;;;;;;5053798;28;20376;-80
2022/05/13 13:23:33;;;;;;;3.17;2.40;;;23.50;68.10;;;;;;5071971;28;20082;-80
2022/05/13 13:26:02;;;;;;;5.18;3.00;;;23.50;68.60;;;;;;5072089;28;20524;-79
2022/05/13 13:28:34;;;;;;;4.88;2.60;;;23.60;70.80;;;;;;5072493;28;20470;-80
2022/05/13 13:31:08;;;;;;;3.50;2.70;;;23.70;70.20;;;;;;5053558;28;20027;-80
2022/05/13 13:33:35;;;;;;;5.85;2.78;;;23.70;68.80;;;;;;5072062;28;20051;-80
2022/05/13 13:36:13;;;;;;;4.03;2.40;;;23.70;68.50;;;;;;5071150;28;20054;-80